sensor_id;sensor_type;location;lat;lon;timestamp;temperature;humidity
19044;DHT22;9654;52.302;8.120;2023-05-10T00:00:39;14.10;99.90
19044;DHT22;9654;52.302;8.120;2023-05-10T00:03:06;14.10;99.90
19044;DHT22;9654;52.302;8.120;2023-05-10T00:05:33;14.10;99.90
19044;DHT22;9654;52.302;8.120;2023-05-10T00:07:59;14.10;99.90
19044;DHT22;9654;52.302;8.120;2023-05-10T00:10:26;14.00;99.90
19044;DHT22;9654;52.302;8.120;2023-05-10T00:12:53;14.00;99.90
19044;DHT22;9654;52.302;8.120;2023-05-10T00:15:20;14.00;99.90
19044;DHT22;9654;52.302;8.120;2023-05-10T00:17:48;14.00;99.90
19044;DHT22;9654;52.302;8.120;2023-05-10T00:20:14;14.00;99.90
19044;DHT22;9654;52.302;8.120;2023-05-10T00:22:41;14.00;99.90
19044;DHT22;9654;52.302;8.120;2023-05-10T00:25:08;14.00;99.90
19044;DHT22;9654;52.302;8.120;2023-05-10T00:27:35;14.00;99.90
19044;DHT22;9654;52.302;8.120;2023-05-10T00:30:02;14.00;99.90
19044;DHT22;9654;52.302;8.120;2023-05-10T00:32:29;14.00;99.90
19044;DHT22;9654;52.302;8.120;2023-05-10T00:34:57;14.00;99.90
19044;DHT22;9654;52.302;8.120;2023-05-10T00:37:24;14.00;99.90
19044;DHT22;9654;52.302;8.120;2023-05-10T00:39:51;14.00;99.90
19044;DHT22;9654;52.302;8.120;2023-05-10T00:42:18;13.90;99.90
19044;DHT22;9654;52.302;8.120;2023-05-10T00:44:45;13.90;99.90
19044;DHT22;9654;52.302;8.120;2023-05-10T00:47:12;13.90;99.90
19044;DHT22;9654;52.302;8.120;2023-05-10T00:49:39;13.90;99.90
19044;DHT22;9654;52.302;8.120;2023-05-10T00:52:08;13.90;99.90
19044;DHT22;9654;52.302;8.120;2023-05-10T00:54:35;13.90;99.90
19044;DHT22;9654;52.302;8.120;2023-05-10T00:57:02;13.90;99.90
19044;DHT22;9654;52.302;8.120;2023-05-10T00:59:29;13.90;99.90
19044;DHT22;9654;52.302;8.120;2023-05-10T01:01:57;13.90;99.90
19044;DHT22;9654;52.302;8.120;2023-05-10T01:04:24;13.90;99.90
19044;DHT22;9654;52.302;8.120;2023-05-10T01:06:52;13.90;99.90
19044;DHT22;9654;52.302;8.120;2023-05-10T01:09:21;13.80;99.90
19044;DHT22;9654;52.302;8.120;2023-05-10T01:11:49;13.90;99.90
19044;DHT22;9654;52.302;8.120;2023-05-10T01:14:17;13.80;99.90
19044;DHT22;9654;52.302;8.120;2023-05-10T01:16:44;13.90;99.90
19044;DHT22;9654;52.302;8.120;2023-05-10T01:19:17;13.80;99.90
19044;DHT22;9654;52.302;8.120;2023-05-10T01:21:49;13.80;99.90
19044;DHT22;9654;52.302;8.120;2023-05-10T01:24:40;13.80;99.90
19044;DHT22;9654;52.302;8.120;2023-05-10T01:33:19;13.80;99.90
19044;DHT22;9654;52.302;8.120;2023-05-10T01:35:53;13.80;99.90
19044;DHT22;9654;52.302;8.120;2023-05-10T01:38:28;13.80;99.90
19044;DHT22;9654;52.302;8.120;2023-05-10T01:41:04;13.90;99.90
19044;DHT22;9654;52.302;8.120;2023-05-10T01:43:40;13.90;99.90
19044;DHT22;9654;52.302;8.120;2023-05-10T01:46:13;13.80;99.90
19044;DHT22;9654;52.302;8.120;2023-05-10T01:48:47;13.80;99.90
19044;DHT22;9654;52.302;8.120;2023-05-10T01:51:24;13.80;99.90
19044;DHT22;9654;52.302;8.120;2023-05-10T01:53:58;13.80;99.90
19044;DHT22;9654;52.302;8.120;2023-05-10T01:56:26;13.80;99.90
19044;DHT22;9654;52.302;8.120;2023-05-10T01:58:55;13.70;99.90
19044;DHT22;9654;52.302;8.120;2023-05-10T02:01:24;13.70;99.90
19044;DHT22;9654;52.302;8.120;2023-05-10T02:03:53;13.70;99.90
19044;DHT22;9654;52.302;8.120;2023-05-10T02:06:22;13.70;99.90
19044;DHT22;9654;52.302;8.120;2023-05-10T02:08:51;13.70;99.90
19044;DHT22;9654;52.302;8.120;2023-05-10T02:11:19;13.70;99.90
19044;DHT22;9654;52.302;8.120;2023-05-10T02:13:48;13.60;99.90
19044;DHT22;9654;52.302;8.120;2023-05-10T02:16:16;13.60;99.90
19044;DHT22;9654;52.302;8.120;2023-05-10T02:18:45;13.60;99.90
19044;DHT22;9654;52.302;8.120;2023-05-10T02:21:15;13.60;99.90
19044;DHT22;9654;52.302;8.120;2023-05-10T02:23:44;13.60;99.90
19044;DHT22;9654;52.302;8.120;2023-05-10T02:26:11;13.60;99.90
19044;DHT22;9654;52.302;8.120;2023-05-10T02:28:39;13.60;99.90
19044;DHT22;9654;52.302;8.120;2023-05-10T02:31:07;13.60;99.90
19044;DHT22;9654;52.302;8.120;2023-05-10T02:33:35;13.60;99.90
19044;DHT22;9654;52.302;8.120;2023-05-10T02:36:02;13.60;99.90
19044;DHT22;9654;52.302;8.120;2023-05-10T02:38:33;13.60;99.90
19044;DHT22;9654;52.302;8.120;2023-05-10T02:41:01;13.60;99.90
19044;DHT22;9654;52.302;8.120;2023-05-10T02:43:30;13.60;99.90
19044;DHT22;9654;52.302;8.120;2023-05-10T02:45:58;13.60;99.90
19044;DHT22;9654;52.302;8.120;2023-05-10T02:48:24;13.60;99.90
19044;DHT22;9654;52.302;8.120;2023-05-10T02:50:53;13.60;99.90
19044;DHT22;9654;52.302;8.120;2023-05-10T02:53:24;13.60;99.90
19044;DHT22;9654;52.302;8.120;2023-05-10T02:55:59;13.50;99.90
19044;DHT22;9654;52.302;8.120;2023-05-10T02:58:27;13.50;99.90
19044;DHT22;9654;52.302;8.120;2023-05-10T03:00:54;13.50;99.90
19044;DHT22;9654;52.302;8.120;2023-05-10T03:03:20;13.40;99.90
19044;DHT22;9654;52.302;8.120;2023-05-10T03:05:47;13.40;99.90
19044;DHT22;9654;52.302;8.120;2023-05-10T03:08:14;13.40;99.90
19044;DHT22;9654;52.302;8.120;2023-05-10T03:10:46;13.40;99.90
19044;DHT22;9654;52.302;8.120;2023-05-10T03:13:21;13.40;99.90
19044;DHT22;9654;52.302;8.120;2023-05-10T03:16:02;13.20;99.90
19044;DHT22;9654;52.302;8.120;2023-05-10T03:18:37;13.00;99.90
19044;DHT22;9654;52.302;8.120;2023-05-10T03:21:10;12.90;99.90
19044;DHT22;9654;52.302;8.120;2023-05-10T03:23:43;12.90;99.90
19044;DHT22;9654;52.302;8.120;2023-05-10T03:26:12;12.70;99.90
19044;DHT22;9654;52.302;8.120;2023-05-10T03:28:43;12.70;99.90
19044;DHT22;9654;52.302;8.120;2023-05-10T03:31:12;12.60;99.90
19044;DHT22;9654;52.302;8.120;2023-05-10T03:33:46;12.60;99.90
19044;DHT22;9654;52.302;8.120;2023-05-10T03:36:13;12.50;99.90
19044;DHT22;9654;52.302;8.120;2023-05-10T03:38:40;12.50;99.90
19044;DHT22;9654;52.302;8.120;2023-05-10T03:41:06;12.40;99.90
19044;DHT22;9654;52.302;8.120;2023-05-10T03:43:33;12.40;99.90
19044;DHT22;9654;52.302;8.120;2023-05-10T03:46:03;12.30;99.90
19044;DHT22;9654;52.302;8.120;2023-05-10T03:48:30;12.30;99.90
19044;DHT22;9654;52.302;8.120;2023-05-10T03:50:56;12.30;99.90
19044;DHT22;9654;52.302;8.120;2023-05-10T03:53:23;12.40;99.90
19044;DHT22;9654;52.302;8.120;2023-05-10T03:55:50;12.30;99.90
19044;DHT22;9654;52.302;8.120;2023-05-10T03:58:17;12.30;99.90
19044;DHT22;9654;52.302;8.120;2023-05-10T04:00:44;12.30;99.90
19044;DHT22;9654;52.302;8.120;2023-05-10T04:03:12;12.30;99.90
19044;DHT22;9654;52.302;8.120;2023-05-10T04:05:40;12.30;99.90
19044;DHT22;9654;52.302;8.120;2023-05-10T04:08:06;12.30;99.90
19044;DHT22;9654;52.302;8.120;2023-05-10T04:10:33;12.30;99.90
19044;DHT22;9654;52.302;8.120;2023-05-10T04:13:00;12.30;99.90
19044;DHT22;9654;52.302;8.120;2023-05-10T04:15:27;12.20;99.90
19044;DHT22;9654;52.302;8.120;2023-05-10T04:17:54;12.20;99.90
19044;DHT22;9654;52.302;8.120;2023-05-10T04:20:22;12.20;99.90
19044;DHT22;9654;52.302;8.120;2023-05-10T04:22:49;12.20;99.90
19044;DHT22;9654;52.302;8.120;2023-05-10T04:25:15;12.20;99.90
19044;DHT22;9654;52.302;8.120;2023-05-10T04:27:42;12.20;99.90
19044;DHT22;9654;52.302;8.120;2023-05-10T04:30:10;12.20;99.90
19044;DHT22;9654;52.302;8.120;2023-05-10T04:32:37;12.20;99.90
19044;DHT22;9654;52.302;8.120;2023-05-10T04:35:04;12.20;99.90
19044;DHT22;9654;52.302;8.120;2023-05-10T04:37:32;12.20;99.90
19044;DHT22;9654;52.302;8.120;2023-05-10T04:39:59;12.30;99.90
19044;DHT22;9654;52.302;8.120;2023-05-10T04:42:26;12.30;99.90
19044;DHT22;9654;52.302;8.120;2023-05-10T04:44:53;12.30;99.90
19044;DHT22;9654;52.302;8.120;2023-05-10T04:47:20;12.30;99.90
19044;DHT22;9654;52.302;8.120;2023-05-10T04:49:47;12.30;99.90
19044;DHT22;9654;52.302;8.120;2023-05-10T04:52:13;12.30;99.90
19044;DHT22;9654;52.302;8.120;2023-05-10T04:54:44;12.30;99.90
19044;DHT22;9654;52.302;8.120;2023-05-10T04:57:10;12.30;99.90
19044;DHT22;9654;52.302;8.120;2023-05-10T04:59:37;12.30;99.90
19044;DHT22;9654;52.302;8.120;2023-05-10T05:02:05;12.30;99.90
19044;DHT22;9654;52.302;8.120;2023-05-10T05:04:32;12.30;99.90
19044;DHT22;9654;52.302;8.120;2023-05-10T05:06:58;12.30;99.90
19044;DHT22;9654;52.302;8.120;2023-05-10T05:09:25;12.30;99.90
19044;DHT22;9654;52.302;8.120;2023-05-10T05:11:53;12.30;99.90
19044;DHT22;9654;52.302;8.120;2023-05-10T05:14:20;12.30;99.90
19044;DHT22;9654;52.302;8.120;2023-05-10T05:16:47;12.40;99.90
19044;DHT22;9654;52.302;8.120;2023-05-10T05:19:14;12.40;99.90
19044;DHT22;9654;52.302;8.120;2023-05-10T05:21:40;12.40;99.90
19044;DHT22;9654;52.302;8.120;2023-05-10T05:24:07;12.40;99.90
19044;DHT22;9654;52.302;8.120;2023-05-10T05:26:35;12.40;99.90
19044;DHT22;9654;52.302;8.120;2023-05-10T05:29:04;12.40;99.90
19044;DHT22;9654;52.302;8.120;2023-05-10T05:31:30;12.40;99.90
19044;DHT22;9654;52.302;8.120;2023-05-10T05:33:57;12.40;99.90
19044;DHT22;9654;52.302;8.120;2023-05-10T05:36:24;12.40;99.90
19044;DHT22;9654;52.302;8.120;2023-05-10T05:38:51;12.40;99.90
19044;DHT22;9654;52.302;8.120;2023-05-10T05:41:17;12.40;99.90
19044;DHT22;9654;52.302;8.120;2023-05-10T05:43:45;12.40;99.90
19044;DHT22;9654;52.302;8.120;2023-05-10T05:46:13;12.40;99.90
19044;DHT22;9654;52.302;8.120;2023-05-10T05:48:40;12.50;99.90
19044;DHT22;9654;52.302;8.120;2023-05-10T05:51:07;12.50;99.90
19044;DHT22;9654;52.302;8.120;2023-05-10T05:53:33;12.60;99.90
19044;DHT22;9654;52.302;8.120;2023-05-10T05:56:00;12.60;99.90
19044;DHT22;9654;52.302;8.120;2023-05-10T05:58:28;12.70;99.90
19044;DHT22;9654;52.302;8.120;2023-05-10T06:00:55;12.70;99.90
19044;DHT22;9654;52.302;8.120;2023-05-10T06:03:23;12.70;99.90
19044;DHT22;9654;52.302;8.120;2023-05-10T06:05:50;12.70;99.90
19044;DHT22;9654;52.302;8.120;2023-05-10T06:08:17;12.80;99.90
19044;DHT22;9654;52.302;8.120;2023-05-10T06:10:44;12.80;99.90
19044;DHT22;9654;52.302;8.120;2023-05-10T06:13:10;12.80;99.90
19044;DHT22;9654;52.302;8.120;2023-05-10T06:15:37;12.80;99.90
19044;DHT22;9654;52.302;8.120;2023-05-10T06:18:04;12.70;99.90
19044;DHT22;9654;52.302;8.120;2023-05-10T06:20:33;12.70;99.90
19044;DHT22;9654;52.302;8.120;2023-05-10T06:23:00;12.70;99.90
19044;DHT22;9654;52.302;8.120;2023-05-10T06:25:27;12.70;99.90
19044;DHT22;9654;52.302;8.120;2023-05-10T06:27:53;12.70;99.90
19044;DHT22;9654;52.302;8.120;2023-05-10T06:30:24;12.70;99.90
19044;DHT22;9654;52.302;8.120;2023-05-10T06:32:53;12.70;99.90
19044;DHT22;9654;52.302;8.120;2023-05-10T06:35:21;12.70;99.90
19044;DHT22;9654;52.302;8.120;2023-05-10T06:37:49;12.70;99.90
19044;DHT22;9654;52.302;8.120;2023-05-10T06:40:16;12.80;99.90
19044;DHT22;9654;52.302;8.120;2023-05-10T07:00:15;12.90;99.90
19044;DHT22;9654;52.302;8.120;2023-05-10T07:02:42;13.00;99.90
19044;DHT22;9654;52.302;8.120;2023-05-10T07:05:09;13.00;99.90
19044;DHT22;9654;52.302;8.120;2023-05-10T07:07:36;13.00;99.90
19044;DHT22;9654;52.302;8.120;2023-05-10T07:10:03;13.00;99.90
19044;DHT22;9654;52.302;8.120;2023-05-10T07:12:30;13.10;99.90
19044;DHT22;9654;52.302;8.120;2023-05-10T07:14:56;13.20;99.90
19044;DHT22;9654;52.302;8.120;2023-05-10T07:17:25;13.20;99.90
19044;DHT22;9654;52.302;8.120;2023-05-10T07:19:51;13.30;99.90
19044;DHT22;9654;52.302;8.120;2023-05-10T07:22:18;13.40;99.90
19044;DHT22;9654;52.302;8.120;2023-05-10T07:24:45;13.50;99.90
19044;DHT22;9654;52.302;8.120;2023-05-10T07:27:12;13.70;99.90
19044;DHT22;9654;52.302;8.120;2023-05-10T07:29:39;13.80;99.90
19044;DHT22;9654;52.302;8.120;2023-05-10T07:32:06;14.00;99.90
19044;DHT22;9654;52.302;8.120;2023-05-10T07:34:34;14.00;99.90
19044;DHT22;9654;52.302;8.120;2023-05-10T07:37:01;13.80;99.90
19044;DHT22;9654;52.302;8.120;2023-05-10T07:39:28;13.70;99.90
19044;DHT22;9654;52.302;8.120;2023-05-10T07:41:55;13.70;99.90
19044;DHT22;9654;52.302;8.120;2023-05-10T07:44:22;13.60;99.90
19044;DHT22;9654;52.302;8.120;2023-05-10T07:46:49;13.60;99.90
19044;DHT22;9654;52.302;8.120;2023-05-10T07:49:16;13.60;99.90
19044;DHT22;9654;52.302;8.120;2023-05-10T07:51:44;13.60;99.90
19044;DHT22;9654;52.302;8.120;2023-05-10T07:54:11;13.70;99.90
19044;DHT22;9654;52.302;8.120;2023-05-10T07:56:38;13.80;99.90
19044;DHT22;9654;52.302;8.120;2023-05-10T07:59:06;13.90;99.90
19044;DHT22;9654;52.302;8.120;2023-05-10T08:01:33;13.90;99.90
19044;DHT22;9654;52.302;8.120;2023-05-10T08:04:01;13.90;99.90
19044;DHT22;9654;52.302;8.120;2023-05-10T08:06:28;13.90;99.90
19044;DHT22;9654;52.302;8.120;2023-05-10T08:08:57;13.80;99.90
19044;DHT22;9654;52.302;8.120;2023-05-10T08:11:23;13.80;99.90
19044;DHT22;9654;52.302;8.120;2023-05-10T08:13:51;13.90;99.90
19044;DHT22;9654;52.302;8.120;2023-05-10T08:16:18;13.90;99.90
19044;DHT22;9654;52.302;8.120;2023-05-10T08:18:46;14.10;99.90
19044;DHT22;9654;52.302;8.120;2023-05-10T08:21:13;14.20;99.90
19044;DHT22;9654;52.302;8.120;2023-05-10T08:23:40;14.40;99.90
19044;DHT22;9654;52.302;8.120;2023-05-10T08:26:10;14.50;99.90
19044;DHT22;9654;52.302;8.120;2023-05-10T08:28:37;14.60;99.90
19044;DHT22;9654;52.302;8.120;2023-05-10T08:31:04;14.70;99.90
19044;DHT22;9654;52.302;8.120;2023-05-10T08:33:31;14.70;99.90
19044;DHT22;9654;52.302;8.120;2023-05-10T08:35:58;14.80;99.90
19044;DHT22;9654;52.302;8.120;2023-05-10T08:38:24;15.00;99.90
19044;DHT22;9654;52.302;8.120;2023-05-10T08:40:54;15.20;99.90
19044;DHT22;9654;52.302;8.120;2023-05-10T08:43:26;15.40;99.90
19044;DHT22;9654;52.302;8.120;2023-05-10T08:45:54;15.50;99.90
19044;DHT22;9654;52.302;8.120;2023-05-10T08:48:23;15.50;99.90
19044;DHT22;9654;52.302;8.120;2023-05-10T08:50:53;15.50;99.90
19044;DHT22;9654;52.302;8.120;2023-05-10T08:53:20;15.60;99.90
19044;DHT22;9654;52.302;8.120;2023-05-10T08:55:48;15.70;99.90
19044;DHT22;9654;52.302;8.120;2023-05-10T08:58:14;15.60;99.90
19044;DHT22;9654;52.302;8.120;2023-05-10T09:00:43;15.50;99.90
19044;DHT22;9654;52.302;8.120;2023-05-10T09:03:10;15.40;99.90
19044;DHT22;9654;52.302;8.120;2023-05-10T09:05:37;15.30;99.90
19044;DHT22;9654;52.302;8.120;2023-05-10T09:08:04;15.30;99.90
19044;DHT22;9654;52.302;8.120;2023-05-10T09:10:32;15.40;99.90
19044;DHT22;9654;52.302;8.120;2023-05-10T09:12:59;15.50;99.90
19044;DHT22;9654;52.302;8.120;2023-05-10T09:15:25;15.70;99.90
19044;DHT22;9654;52.302;8.120;2023-05-10T09:17:54;15.80;99.90
19044;DHT22;9654;52.302;8.120;2023-05-10T09:20:21;15.80;99.90
19044;DHT22;9654;52.302;8.120;2023-05-10T09:22:48;15.90;99.90
19044;DHT22;9654;52.302;8.120;2023-05-10T09:25:16;15.90;99.90
19044;DHT22;9654;52.302;8.120;2023-05-10T09:27:45;15.90;99.90
19044;DHT22;9654;52.302;8.120;2023-05-10T09:30:16;15.90;99.90
19044;DHT22;9654;52.302;8.120;2023-05-10T09:32:45;15.70;99.90
19044;DHT22;9654;52.302;8.120;2023-05-10T09:35:15;15.60;99.90
19044;DHT22;9654;52.302;8.120;2023-05-10T09:37:44;15.60;99.90
19044;DHT22;9654;52.302;8.120;2023-05-10T09:40:12;15.70;99.90
19044;DHT22;9654;52.302;8.120;2023-05-10T09:42:41;15.80;99.90
19044;DHT22;9654;52.302;8.120;2023-05-10T09:45:09;15.80;99.90
19044;DHT22;9654;52.302;8.120;2023-05-10T09:47:35;15.80;99.90
19044;DHT22;9654;52.302;8.120;2023-05-10T09:50:03;15.80;99.90
19044;DHT22;9654;52.302;8.120;2023-05-10T09:52:45;15.90;99.90
19044;DHT22;9654;52.302;8.120;2023-05-10T09:55:12;16.00;99.90
19044;DHT22;9654;52.302;8.120;2023-05-10T09:57:39;16.10;99.90
19044;DHT22;9654;52.302;8.120;2023-05-10T10:00:08;16.30;99.90
19044;DHT22;9654;52.302;8.120;2023-05-10T10:02:35;16.30;99.90
19044;DHT22;9654;52.302;8.120;2023-05-10T10:05:02;16.30;99.90
19044;DHT22;9654;52.302;8.120;2023-05-10T10:07:29;16.30;99.90
19044;DHT22;9654;52.302;8.120;2023-05-10T10:09:58;16.40;99.90
19044;DHT22;9654;52.302;8.120;2023-05-10T10:12:25;16.40;99.90
19044;DHT22;9654;52.302;8.120;2023-05-10T10:14:53;16.50;99.90
19044;DHT22;9654;52.302;8.120;2023-05-10T10:17:21;16.90;99.90
19044;DHT22;9654;52.302;8.120;2023-05-10T10:19:48;17.30;99.90
19044;DHT22;9654;52.302;8.120;2023-05-10T10:22:16;17.30;99.90
19044;DHT22;9654;52.302;8.120;2023-05-10T10:24:43;17.20;99.90
19044;DHT22;9654;52.302;8.120;2023-05-10T10:27:35;17.10;99.90
19044;DHT22;9654;52.302;8.120;2023-05-10T10:30:09;17.00;99.90
19044;DHT22;9654;52.302;8.120;2023-05-10T10:35:36;16.80;99.90
19044;DHT22;9654;52.302;8.120;2023-05-10T10:38:03;17.10;99.90
19044;DHT22;9654;52.302;8.120;2023-05-10T10:40:31;17.40;99.90
19044;DHT22;9654;52.302;8.120;2023-05-10T10:43:22;17.40;99.90
19044;DHT22;9654;52.302;8.120;2023-05-10T10:46:14;17.40;99.90
19044;DHT22;9654;52.302;8.120;2023-05-10T10:48:47;17.40;99.90
19044;DHT22;9654;52.302;8.120;2023-05-10T10:51:14;17.40;99.90
19044;DHT22;9654;52.302;8.120;2023-05-10T10:53:41;17.50;99.90
19044;DHT22;9654;52.302;8.120;2023-05-10T10:56:10;17.60;99.90
19044;DHT22;9654;52.302;8.120;2023-05-10T10:58:40;17.60;99.90
19044;DHT22;9654;52.302;8.120;2023-05-10T11:01:12;17.40;99.90
19044;DHT22;9654;52.302;8.120;2023-05-10T11:03:40;17.40;99.90
19044;DHT22;9654;52.302;8.120;2023-05-10T11:06:07;17.30;99.90
19044;DHT22;9654;52.302;8.120;2023-05-10T11:08:41;17.20;99.90
19044;DHT22;9654;52.302;8.120;2023-05-10T11:11:09;17.20;99.90
19044;DHT22;9654;52.302;8.120;2023-05-10T11:13:42;17.10;99.90
19044;DHT22;9654;52.302;8.120;2023-05-10T11:16:16;16.90;99.90
19044;DHT22;9654;52.302;8.120;2023-05-10T11:18:57;16.70;99.90
19044;DHT22;9654;52.302;8.120;2023-05-10T11:21:24;16.70;99.90
19044;DHT22;9654;52.302;8.120;2023-05-10T11:23:52;16.80;99.90
19044;DHT22;9654;52.302;8.120;2023-05-10T11:26:22;16.90;99.90
19044;DHT22;9654;52.302;8.120;2023-05-10T11:28:53;17.10;99.90
19044;DHT22;9654;52.302;8.120;2023-05-10T11:31:22;17.30;99.90
19044;DHT22;9654;52.302;8.120;2023-05-10T11:33:50;17.70;99.90
19044;DHT22;9654;52.302;8.120;2023-05-10T11:36:18;17.80;99.90
19044;DHT22;9654;52.302;8.120;2023-05-10T11:38:45;18.00;99.90
19044;DHT22;9654;52.302;8.120;2023-05-10T11:41:13;17.90;99.90
19044;DHT22;9654;52.302;8.120;2023-05-10T11:43:40;17.60;99.90
19044;DHT22;9654;52.302;8.120;2023-05-10T11:46:10;17.30;99.90
19044;DHT22;9654;52.302;8.120;2023-05-10T11:48:39;17.20;99.90
19044;DHT22;9654;52.302;8.120;2023-05-10T11:51:06;17.10;99.90
19044;DHT22;9654;52.302;8.120;2023-05-10T11:53:33;17.10;99.90
19044;DHT22;9654;52.302;8.120;2023-05-10T11:56:03;17.20;99.90
19044;DHT22;9654;52.302;8.120;2023-05-10T11:58:30;17.20;99.90
19044;DHT22;9654;52.302;8.120;2023-05-10T12:00:58;17.20;99.90
19044;DHT22;9654;52.302;8.120;2023-05-10T12:03:26;17.30;99.90
19044;DHT22;9654;52.302;8.120;2023-05-10T12:05:54;17.60;99.90
19044;DHT22;9654;52.302;8.120;2023-05-10T12:08:28;17.90;99.90
19044;DHT22;9654;52.302;8.120;2023-05-10T12:11:05;18.10;99.90
19044;DHT22;9654;52.302;8.120;2023-05-10T12:13:32;18.00;99.90
19044;DHT22;9654;52.302;8.120;2023-05-10T12:15:59;18.10;99.90
19044;DHT22;9654;52.302;8.120;2023-05-10T12:18:27;18.20;99.90
19044;DHT22;9654;52.302;8.120;2023-05-10T12:20:54;18.10;99.90
19044;DHT22;9654;52.302;8.120;2023-05-10T12:23:21;18.30;99.90
19044;DHT22;9654;52.302;8.120;2023-05-10T12:25:47;18.60;99.90
19044;DHT22;9654;52.302;8.120;2023-05-10T12:28:14;18.90;99.90
19044;DHT22;9654;52.302;8.120;2023-05-10T12:30:41;18.60;99.90
19044;DHT22;9654;52.302;8.120;2023-05-10T12:33:09;18.50;99.90
19044;DHT22;9654;52.302;8.120;2023-05-10T12:35:46;18.50;99.90
19044;DHT22;9654;52.302;8.120;2023-05-10T12:38:26;18.60;99.90
19044;DHT22;9654;52.302;8.120;2023-05-10T12:40:55;18.70;99.90
19044;DHT22;9654;52.302;8.120;2023-05-10T12:43:21;18.90;99.90
19044;DHT22;9654;52.302;8.120;2023-05-10T12:45:48;18.90;99.90
19044;DHT22;9654;52.302;8.120;2023-05-10T12:48:15;18.80;99.90
19044;DHT22;9654;52.302;8.120;2023-05-10T12:50:43;18.90;99.90
19044;DHT22;9654;52.302;8.120;2023-05-10T12:53:10;19.00;99.90
19044;DHT22;9654;52.302;8.120;2023-05-10T12:55:38;19.10;99.90
19044;DHT22;9654;52.302;8.120;2023-05-10T12:58:05;19.20;99.90
19044;DHT22;9654;52.302;8.120;2023-05-10T13:00:32;19.00;99.90
19044;DHT22;9654;52.302;8.120;2023-05-10T13:02:58;19.10;99.90
19044;DHT22;9654;52.302;8.120;2023-05-10T13:05:25;19.30;99.90
19044;DHT22;9654;52.302;8.120;2023-05-10T13:07:53;19.40;99.90
19044;DHT22;9654;52.302;8.120;2023-05-10T13:10:20;19.50;99.90
19044;DHT22;9654;52.302;8.120;2023-05-10T13:12:49;19.70;99.90
19044;DHT22;9654;52.302;8.120;2023-05-10T13:15:15;19.60;99.90
19044;DHT22;9654;52.302;8.120;2023-05-10T13:17:42;19.50;99.90
19044;DHT22;9654;52.302;8.120;2023-05-10T13:20:11;19.40;99.90
19044;DHT22;9654;52.302;8.120;2023-05-10T13:22:38;19.40;99.90
19044;DHT22;9654;52.302;8.120;2023-05-10T13:25:07;19.30;99.90
19044;DHT22;9654;52.302;8.120;2023-05-10T13:27:33;19.30;99.90
19044;DHT22;9654;52.302;8.120;2023-05-10T13:30:01;19.40;99.90
19044;DHT22;9654;52.302;8.120;2023-05-10T13:32:28;19.80;99.90
19044;DHT22;9654;52.302;8.120;2023-05-10T13:34:55;19.50;99.90
19044;DHT22;9654;52.302;8.120;2023-05-10T13:37:22;19.40;99.90
19044;DHT22;9654;52.302;8.120;2023-05-10T13:39:49;19.50;99.90
19044;DHT22;9654;52.302;8.120;2023-05-10T13:42:17;19.60;99.90
19044;DHT22;9654;52.302;8.120;2023-05-10T13:44:44;19.50;99.90
19044;DHT22;9654;52.302;8.120;2023-05-10T13:47:11;19.30;99.90
19044;DHT22;9654;52.302;8.120;2023-05-10T13:49:37;19.00;99.90
19044;DHT22;9654;52.302;8.120;2023-05-10T13:52:04;18.90;99.90
19044;DHT22;9654;52.302;8.120;2023-05-10T13:54:32;18.80;99.90
19044;DHT22;9654;52.302;8.120;2023-05-10T13:56:59;18.80;99.90
19044;DHT22;9654;52.302;8.120;2023-05-10T13:59:28;18.90;99.90
19044;DHT22;9654;52.302;8.120;2023-05-10T14:01:57;18.80;99.90
19044;DHT22;9654;52.302;8.120;2023-05-10T14:04:23;18.80;99.90
19044;DHT22;9654;52.302;8.120;2023-05-10T14:06:50;19.00;99.90
19044;DHT22;9654;52.302;8.120;2023-05-10T14:09:18;19.60;99.90
19044;DHT22;9654;52.302;8.120;2023-05-10T14:11:45;20.20;99.90
19044;DHT22;9654;52.302;8.120;2023-05-10T14:14:12;20.30;99.90
19044;DHT22;9654;52.302;8.120;2023-05-10T14:16:42;20.30;99.90
19044;DHT22;9654;52.302;8.120;2023-05-10T14:19:09;20.20;99.90
19044;DHT22;9654;52.302;8.120;2023-05-10T14:21:35;20.30;99.90
19044;DHT22;9654;52.302;8.120;2023-05-10T14:24:02;20.50;99.90
19044;DHT22;9654;52.302;8.120;2023-05-10T14:26:30;20.50;99.90
19044;DHT22;9654;52.302;8.120;2023-05-10T14:28:56;20.10;99.90
19044;DHT22;9654;52.302;8.120;2023-05-10T14:31:24;19.80;99.90
19044;DHT22;9654;52.302;8.120;2023-05-10T14:33:52;19.70;99.90
19044;DHT22;9654;52.302;8.120;2023-05-10T14:36:19;20.10;99.90
19044;DHT22;9654;52.302;8.120;2023-05-10T14:38:46;20.20;99.90
19044;DHT22;9654;52.302;8.120;2023-05-10T14:41:12;20.20;99.90
19044;DHT22;9654;52.302;8.120;2023-05-10T14:43:40;19.90;99.90
19044;DHT22;9654;52.302;8.120;2023-05-10T14:46:07;19.50;99.90
19044;DHT22;9654;52.302;8.120;2023-05-10T14:48:34;19.20;99.90
19044;DHT22;9654;52.302;8.120;2023-05-10T14:51:02;19.00;99.90
19044;DHT22;9654;52.302;8.120;2023-05-10T14:53:29;18.80;99.90
19044;DHT22;9654;52.302;8.120;2023-05-10T14:55:56;18.70;99.90
19044;DHT22;9654;52.302;8.120;2023-05-10T14:58:23;18.60;99.90
19044;DHT22;9654;52.302;8.120;2023-05-10T15:00:50;18.40;99.90
19044;DHT22;9654;52.302;8.120;2023-05-10T15:03:17;18.20;99.90
19044;DHT22;9654;52.302;8.120;2023-05-10T15:05:44;18.10;99.90
19044;DHT22;9654;52.302;8.120;2023-05-10T15:08:12;18.10;99.90
19044;DHT22;9654;52.302;8.120;2023-05-10T15:10:39;18.20;99.90
19044;DHT22;9654;52.302;8.120;2023-05-10T15:13:05;18.20;99.90
19044;DHT22;9654;52.302;8.120;2023-05-10T15:15:32;18.20;99.90
19044;DHT22;9654;52.302;8.120;2023-05-10T15:17:59;18.20;99.90
19044;DHT22;9654;52.302;8.120;2023-05-10T15:20:26;18.30;99.90
19044;DHT22;9654;52.302;8.120;2023-05-10T15:22:53;18.40;99.90
19044;DHT22;9654;52.302;8.120;2023-05-10T15:25:21;18.50;99.90
19044;DHT22;9654;52.302;8.120;2023-05-10T15:27:49;18.60;99.90
19044;DHT22;9654;52.302;8.120;2023-05-10T15:30:15;18.70;99.90
19044;DHT22;9654;52.302;8.120;2023-05-10T15:32:42;18.90;99.90
19044;DHT22;9654;52.302;8.120;2023-05-10T15:35:09;19.00;99.90
19044;DHT22;9654;52.302;8.120;2023-05-10T15:37:36;19.20;99.90
19044;DHT22;9654;52.302;8.120;2023-05-10T15:40:04;19.30;99.90
19044;DHT22;9654;52.302;8.120;2023-05-10T15:42:33;19.50;99.90
19044;DHT22;9654;52.302;8.120;2023-05-10T15:44:59;19.60;99.90
19044;DHT22;9654;52.302;8.120;2023-05-10T15:47:26;19.40;99.90
19044;DHT22;9654;52.302;8.120;2023-05-10T15:49:53;19.10;99.90
19044;DHT22;9654;52.302;8.120;2023-05-10T15:52:20;19.20;99.90
19044;DHT22;9654;52.302;8.120;2023-05-10T15:54:48;19.40;99.90
19044;DHT22;9654;52.302;8.120;2023-05-10T15:57:15;19.50;99.90
19044;DHT22;9654;52.302;8.120;2023-05-10T15:59:43;19.40;99.90
19044;DHT22;9654;52.302;8.120;2023-05-10T16:02:10;19.50;99.90
19044;DHT22;9654;52.302;8.120;2023-05-10T16:04:37;19.50;99.90
19044;DHT22;9654;52.302;8.120;2023-05-10T16:07:04;19.50;99.90
19044;DHT22;9654;52.302;8.120;2023-05-10T16:09:31;19.40;99.90
19044;DHT22;9654;52.302;8.120;2023-05-10T16:11:58;19.20;99.90
19044;DHT22;9654;52.302;8.120;2023-05-10T16:14:24;18.90;99.90
19044;DHT22;9654;52.302;8.120;2023-05-10T16:16:53;18.60;99.90